createdAt,value
2019-04-26T07:40:02.976Z,47.6
2019-04-26T08:00:06.514Z,45.0
2019-04-26T08:05:00.641Z,50.0
2019-04-26T08:10:00.408Z,50.3
2019-04-26T08:15:00.893Z,49.6
2019-04-26T08:25:00.537Z,50.9
2019-04-26T08:30:08.146Z,49.9
2019-04-26T08:35:06.694Z,50.4
2019-04-26T08:40:00.468Z,51.6
2019-04-26T08:45:00.593Z,52.2
2019-04-26T08:50:00.672Z,52.3
2019-04-26T08:55:00.427Z,52.9
2019-04-26T09:00:00.384Z,52.9
2019-04-26T09:05:00.487Z,51.9
2019-04-26T09:10:11.087Z,51.7
2019-04-26T09:15:00.703Z,51.6
2019-04-26T09:20:09.340Z,50.8
2019-04-26T09:25:01.274Z,50.2
2019-04-26T09:30:06.331Z,50.6
2019-04-26T09:35:00.457Z,50.2
2019-04-26T09:40:10.956Z,50.2
2019-04-26T09:45:00.458Z,50.3
2019-04-26T09:50:00.439Z,50.6
2019-04-26T09:55:00.838Z,50.1
2019-04-26T10:00:00.837Z,50.1
2019-04-26T10:05:00.641Z,50.2
2019-04-26T10:10:01.159Z,50.0
2019-04-26T10:15:01.038Z,49.1
2019-04-26T10:20:00.767Z,49.5
2019-04-26T10:30:09.265Z,49.0
2019-04-26T10:35:05.457Z,49.0
2019-04-26T10:40:00.403Z,49.2
2019-04-26T10:45:00.551Z,48.3
2019-04-26T10:50:00.537Z,48.1
2019-04-26T10:55:02.040Z,47.0
2019-04-26T11:00:00.505Z,45.8
2019-04-26T11:05:00.487Z,44.8
2019-04-26T11:10:03.163Z,43.5
2019-04-26T11:15:00.539Z,42.2
2019-04-26T11:20:00.411Z,40.8
2019-04-26T11:25:01.189Z,39.8
2019-04-26T11:30:15.744Z,38.6
2019-04-26T11:35:00.802Z,37.9
2019-04-26T11:40:00.439Z,36.8
2019-04-26T11:45:10.640Z,34.2
2019-04-26T11:50:00.651Z,32.1
2019-04-26T11:55:00.544Z,30.4
2019-04-26T12:00:06.645Z,28.5
2019-04-26T12:05:00.518Z,26.8
2019-04-26T12:10:00.466Z,26.7
2019-04-26T12:15:08.396Z,27.0
2019-04-26T12:20:02.389Z,25.6
2019-04-26T12:25:07.110Z,25.5
2019-04-26T12:30:00.444Z,23.9
2019-04-26T12:35:05.630Z,23.3
2019-04-26T12:40:00.664Z,22.4
2019-04-26T12:45:00.586Z,22.4
2019-04-26T12:50:00.697Z,21.6
2019-04-26T12:55:00.543Z,21.5
2019-04-26T13:00:03.647Z,21.3
2019-04-26T13:05:00.512Z,20.3
2019-04-26T13:10:06.356Z,20.4
2019-04-26T13:15:00.615Z,20.0
2019-04-26T13:30:04.199Z,22.8
2019-04-26T13:35:01.382Z,20.5
2019-04-26T13:40:00.746Z,19.2
2019-04-26T13:45:00.787Z,17.9
2019-04-26T13:50:00.725Z,17.2
2019-04-26T13:55:00.891Z,15.3
2019-04-26T14:00:06.675Z,14.4
2019-04-26T14:05:00.771Z,13.7
2019-04-26T14:10:00.735Z,13.4
2019-04-26T14:15:08.340Z,12.7
2019-04-26T14:20:00.741Z,12.0
2019-04-26T14:25:00.833Z,10.2
2019-04-26T14:30:06.407Z,8.8
2019-04-26T14:35:01.691Z,7.3
2019-04-26T14:45:06.024Z,5.1
2019-04-26T14:50:14.459Z,5.2
2019-04-26T14:55:00.787Z,5.2
2019-04-26T15:00:00.798Z,5.2
2019-04-26T15:05:09.027Z,5.3
2019-04-26T15:15:04.034Z,6.0
2019-04-26T15:20:00.770Z,6.6
2019-04-26T15:25:00.844Z,7.5
2019-04-26T15:30:04.443Z,8.2
2019-04-26T15:35:00.840Z,9.7
2019-04-26T15:40:02.260Z,10.1
2019-04-26T15:45:03.414Z,10.4
2019-04-26T15:50:10.862Z,10.7
2019-04-26T15:55:06.158Z,11.3
2019-04-26T16:00:04.413Z,12.0
2019-04-26T16:05:02.744Z,13.2
2019-04-26T16:10:00.791Z,15.3
2019-04-26T16:15:06.442Z,16.5
2019-04-26T16:20:02.031Z,17.3
2019-04-26T16:25:05.403Z,17.2
2019-04-26T16:30:03.121Z,17.5
2019-04-26T16:35:02.871Z,17.1
2019-04-26T16:40:00.906Z,16.8
2019-04-26T16:45:07.835Z,17.6
2019-04-26T16:50:03.723Z,18.1
2019-04-26T16:55:04.416Z,18.0
2019-04-26T17:00:00.878Z,18.5
2019-04-26T17:05:20.858Z,18.8
2019-04-26T17:15:00.946Z,20.1
2019-04-26T17:20:02.740Z,20.9
2019-04-26T17:25:02.742Z,21.9
2019-04-26T17:30:00.819Z,24.6
2019-04-26T17:35:07.561Z,26.2
2019-04-26T17:40:01.080Z,27.8
2019-04-26T17:45:06.911Z,28.8
2019-04-26T17:50:06.351Z,29.0
2019-04-26T17:55:00.980Z,28.6
2019-04-26T18:00:11.991Z,28.2
2019-04-26T18:05:03.802Z,28.0
2019-04-26T18:10:06.334Z,27.6
2019-04-26T18:15:10.182Z,27.1
2019-04-26T18:20:07.948Z,25.8
2019-04-26T18:25:12.402Z,25.9
2019-04-26T18:30:12.106Z,26.0
2019-04-26T18:35:01.102Z,26.6
2019-04-26T18:40:08.866Z,27.1
2019-04-26T18:45:00.977Z,28.2
2019-04-26T18:50:00.853Z,28.4
2019-04-26T18:55:00.921Z,29.4
2019-04-26T19:00:01.064Z,30.2
2019-04-26T19:05:00.923Z,31.3
2019-04-26T19:10:05.582Z,32.4
2019-04-26T19:15:07.639Z,33.0
2019-04-26T19:20:02.344Z,32.8
2019-04-26T19:25:02.285Z,33.1
2019-04-26T19:30:09.274Z,33.6
2019-04-26T19:35:11.977Z,34.2
2019-04-26T19:40:09.904Z,33.3
2019-04-26T19:45:17.144Z,31.7
2019-04-26T19:50:11.199Z,31.3
2019-04-26T19:55:02.161Z,28.9
2019-04-26T20:00:09.169Z,26.2
2019-04-26T20:05:06.420Z,24.9
2019-04-26T20:10:06.217Z,24.5
2019-04-26T20:15:02.565Z,22.6
2019-04-26T20:20:02.307Z,21.6
2019-04-26T20:25:02.701Z,21.5
2019-04-26T20:30:02.610Z,20.4
2019-04-26T20:35:00.919Z,20.7
2019-04-26T20:45:08.358Z,21.3
2019-04-26T20:50:03.181Z,21.8
2019-04-26T20:55:01.043Z,23.0
2019-04-26T21:00:05.710Z,23.2
2019-04-26T21:05:06.082Z,24.6
2019-04-26T21:10:00.921Z,25.6
2019-04-26T21:15:02.652Z,26.5
2019-04-26T21:20:02.576Z,28.9
2019-04-26T21:25:11.668Z,30.9
2019-04-26T21:30:05.935Z,33.0
2019-04-26T21:35:00.994Z,34.6
2019-04-26T21:40:00.935Z,36.3
2019-04-26T21:45:00.937Z,36.0
2019-04-26T21:50:01.078Z,36.3
2019-04-26T21:55:01.014Z,36.3
2019-04-26T22:00:00.948Z,35.7
2019-04-26T22:10:01.012Z,36.4
2019-04-26T22:15:05.950Z,37.2
2019-04-26T22:20:14.368Z,38.4
2019-04-26T22:25:01.053Z,39.8
2019-04-26T22:30:03.089Z,40.0
2019-04-26T22:35:05.999Z,40.9
2019-04-26T22:40:00.992Z,41.0
2019-04-26T22:45:09.206Z,40.4
2019-04-26T22:50:01.299Z,40.4
2019-04-26T22:55:01.100Z,40.0
2019-04-26T23:00:00.969Z,39.3
2019-04-26T23:05:05.598Z,39.6
2019-04-26T23:10:01.044Z,40.2
2019-04-26T23:15:00.974Z,41.0
2019-04-26T23:20:02.647Z,43.5
2019-04-26T23:25:01.125Z,46.0
2019-04-26T23:30:01.010Z,46.6
2019-04-26T23:35:06.103Z,47.2
2019-04-26T23:40:00.981Z,48.2
2019-04-26T23:45:01.056Z,48.0
2019-04-26T23:50:00.990Z,48.1
2019-04-26T23:55:09.001Z,48.5
